createdAt,value
2019-01-20T00:01:20.287Z,29.75
2019-01-20T00:03:49.830Z,31.82
2019-01-20T00:06:19.155Z,31.35
2019-01-20T00:08:48.440Z,30.62
2019-01-20T00:11:17.776Z,31.70
2019-01-20T00:13:47.074Z,30.00
2019-01-20T00:16:16.679Z,26.42
2019-01-20T00:18:45.888Z,23.70
2019-01-20T00:21:15.134Z,28.27
2019-01-20T00:23:44.443Z,27.55
2019-01-20T00:26:13.667Z,26.40
2019-01-20T00:28:42.941Z,21.05
2019-01-20T00:31:12.146Z,23.52
2019-01-20T00:33:41.367Z,21.30
2019-01-20T00:36:10.631Z,28.32
2019-01-20T00:38:40.024Z,28.65
2019-01-20T00:41:09.299Z,18.70
2019-01-20T00:43:38.545Z,27.37
2019-01-20T00:46:07.892Z,21.95
2019-01-20T00:48:37.117Z,21.93
2019-01-20T00:51:06.343Z,28.27
2019-01-20T00:53:35.636Z,21.00
2019-01-20T00:56:05.824Z,22.95
2019-01-20T00:58:35.062Z,30.37
2019-01-20T01:01:04.551Z,19.20
2019-01-20T01:03:33.830Z,27.80
2019-01-20T01:06:03.090Z,22.95
2019-01-20T01:08:32.396Z,21.55
2019-01-20T01:11:01.631Z,21.05
2019-01-20T01:13:30.923Z,21.70
2019-01-20T01:16:00.126Z,16.30
2019-01-20T01:18:29.422Z,20.90
2019-01-20T01:20:58.589Z,20.25
2019-01-20T01:23:27.796Z,16.70
2019-01-20T01:25:56.998Z,31.80
2019-01-20T01:28:26.225Z,21.23
2019-01-20T01:30:55.573Z,26.80
2019-01-20T01:33:24.814Z,21.05
2019-01-20T01:35:54.058Z,20.90
2019-01-20T01:38:23.275Z,24.32
2019-01-20T01:40:52.579Z,28.30
2019-01-20T01:43:21.827Z,25.32
2019-01-20T01:45:51.014Z,21.70
2019-01-20T01:48:20.557Z,20.32
2019-01-20T01:50:50.082Z,26.95
2019-01-20T01:53:19.266Z,20.08
2019-01-20T01:55:48.419Z,19.32
2019-01-20T01:58:17.789Z,21.57
2019-01-20T02:00:47.009Z,25.65
2019-01-20T02:03:16.258Z,30.30
2019-01-20T02:05:45.485Z,24.18
2019-01-20T02:08:14.827Z,23.73
2019-01-20T02:10:44.095Z,22.27
2019-01-20T02:13:13.335Z,21.52
2019-01-20T02:15:42.608Z,33.80
2019-01-20T02:18:11.871Z,26.27
2019-01-20T02:20:41.186Z,23.52
2019-01-20T02:23:10.459Z,19.37
2019-01-20T02:25:39.756Z,25.57
2019-01-20T02:28:09.294Z,24.10
2019-01-20T02:30:38.573Z,24.40
2019-01-20T02:33:07.854Z,23.05
2019-01-20T02:35:37.086Z,24.50
2019-01-20T02:38:06.294Z,21.68
2019-01-20T02:40:35.526Z,21.82
2019-01-20T02:43:04.757Z,29.82
2019-01-20T02:45:34.031Z,37.28
2019-01-20T02:48:03.333Z,26.80
2019-01-20T02:50:32.660Z,36.42
2019-01-20T02:53:01.990Z,39.88
2019-01-20T02:55:31.159Z,37.28
2019-01-20T02:58:02.037Z,45.90
2019-01-20T03:00:31.374Z,38.75
2019-01-20T03:03:00.550Z,38.25
2019-01-20T03:05:29.786Z,28.20
2019-01-20T03:07:59.067Z,46.33
2019-01-20T03:10:28.354Z,36.08
2019-01-20T03:12:57.596Z,40.40
2019-01-20T03:15:26.784Z,34.38
2019-01-20T03:17:55.938Z,45.73
2019-01-20T03:20:25.281Z,28.83
2019-01-20T03:22:54.553Z,32.88
2019-01-20T03:25:23.709Z,35.00
2019-01-20T03:27:52.958Z,32.00
2019-01-20T03:30:23.726Z,39.55
2019-01-20T03:32:52.958Z,38.60
2019-01-20T03:35:25.247Z,25.20
2019-01-20T03:37:54.707Z,29.65
2019-01-20T03:40:23.865Z,30.92
2019-01-20T03:42:53.082Z,30.17
2019-01-20T03:45:22.258Z,27.65
2019-01-20T03:47:51.441Z,31.05
2019-01-20T03:50:20.648Z,26.17
2019-01-20T03:52:49.922Z,25.65
2019-01-20T03:55:19.305Z,29.70
2019-01-20T03:57:48.481Z,24.82
2019-01-20T04:00:22.630Z,20.52
2019-01-20T04:02:55.066Z,29.98
2019-01-20T04:05:24.303Z,20.95
2019-01-20T04:07:53.524Z,26.02
2019-01-20T04:10:22.782Z,19.25
2019-01-20T04:12:51.962Z,19.30
2019-01-20T04:15:21.154Z,24.20
2019-01-20T04:17:50.391Z,22.48
2019-01-20T04:20:19.631Z,20.15
2019-01-20T04:22:48.816Z,19.25
2019-01-20T04:25:19.055Z,21.48
2019-01-20T04:27:48.676Z,19.42
2019-01-20T04:30:19.879Z,24.82
2019-01-20T04:32:49.185Z,25.85
2019-01-20T04:35:18.962Z,24.47
2019-01-20T04:37:48.351Z,27.00
2019-01-20T04:40:22.568Z,28.30
2019-01-20T04:42:51.839Z,24.90
2019-01-20T04:45:21.011Z,26.93
2019-01-20T04:47:50.325Z,20.57
2019-01-20T04:50:24.103Z,23.07
2019-01-20T04:52:53.330Z,29.60
2019-01-20T04:55:22.581Z,23.15
2019-01-20T04:57:55.749Z,22.13
2019-01-20T05:00:28.931Z,24.65
2019-01-20T05:02:58.252Z,25.75
2019-01-20T05:05:27.500Z,27.37
2019-01-20T05:07:56.661Z,24.75
2019-01-20T05:10:25.895Z,23.02
2019-01-20T05:12:55.122Z,26.10
2019-01-20T05:15:25.165Z,35.05
2019-01-20T05:17:54.387Z,19.10
2019-01-20T05:20:23.664Z,30.05
2019-01-20T05:22:52.815Z,21.70
2019-01-20T05:25:22.052Z,27.75
2019-01-20T05:27:51.221Z,24.65
2019-01-20T05:30:25.486Z,25.50
2019-01-20T05:32:54.729Z,19.27
2019-01-20T05:35:23.955Z,18.80
2019-01-20T05:37:53.107Z,20.45
2019-01-20T05:40:23.634Z,20.48
2019-01-20T05:42:52.876Z,17.05
2019-01-20T05:45:24.073Z,17.70
2019-01-20T05:47:53.541Z,21.97
2019-01-20T05:50:22.854Z,27.22
2019-01-20T05:52:52.139Z,16.27
2019-01-20T05:55:21.419Z,18.52
2019-01-20T05:57:50.754Z,14.63
2019-01-20T06:00:28.277Z,21.80
2019-01-20T06:02:57.529Z,21.62
2019-01-20T06:05:26.771Z,15.80
2019-01-20T06:07:55.965Z,29.00
2019-01-20T06:10:25.140Z,22.65
2019-01-20T06:12:54.627Z,17.35
2019-01-20T06:15:25.449Z,23.12
2019-01-20T06:17:54.986Z,18.10
2019-01-20T06:20:24.433Z,24.37
2019-01-20T06:22:53.754Z,15.28
2019-01-20T06:25:22.992Z,18.98
2019-01-20T06:27:52.227Z,17.17
2019-01-20T06:30:27.415Z,24.65
2019-01-20T06:32:56.562Z,18.12
2019-01-20T06:35:25.730Z,18.77
2019-01-20T06:37:55.011Z,34.35
2019-01-20T06:40:24.244Z,17.42
2019-01-20T06:42:53.445Z,19.37
2019-01-20T06:45:22.703Z,19.35
2019-01-20T06:47:51.877Z,20.65
2019-01-20T06:50:21.671Z,26.73
2019-01-20T06:52:50.864Z,23.22
2019-01-20T06:55:21.729Z,20.65
2019-01-20T06:57:51.052Z,19.52
2019-01-20T07:00:24.541Z,19.40
2019-01-20T07:02:53.784Z,25.50
2019-01-20T07:05:23.095Z,26.95
2019-01-20T07:07:53.545Z,19.20
2019-01-20T07:10:22.795Z,24.98
2019-01-20T07:12:52.038Z,19.10
2019-01-20T07:15:25.356Z,21.20
2019-01-20T07:17:54.917Z,20.02
2019-01-20T07:20:24.092Z,26.30
2019-01-20T07:22:53.459Z,28.27
2019-01-20T07:25:22.687Z,21.20
2019-01-20T07:27:51.857Z,20.52
2019-01-20T07:30:22.930Z,22.77
2019-01-20T07:32:52.152Z,31.07
2019-01-20T07:35:21.802Z,29.98
2019-01-20T07:37:51.281Z,26.75
2019-01-20T07:40:23.060Z,23.15
2019-01-20T07:42:52.299Z,27.25
2019-01-20T07:45:21.614Z,28.83
2019-01-20T07:47:50.950Z,26.48
2019-01-20T07:50:25.486Z,25.85
2019-01-20T07:52:55.099Z,26.90
2019-01-20T07:55:26.078Z,18.02
2019-01-20T07:57:55.375Z,30.95
2019-01-20T08:00:27.364Z,21.07
2019-01-20T08:02:56.603Z,22.95
2019-01-20T08:05:26.105Z,22.62
2019-01-20T08:07:55.367Z,22.15
2019-01-20T08:10:27.135Z,33.63
2019-01-20T08:12:56.430Z,25.25
2019-01-20T08:15:25.807Z,22.73
2019-01-20T08:17:55.107Z,29.52
2019-01-20T08:20:25.306Z,24.50
2019-01-20T08:22:54.609Z,28.73
2019-01-20T08:25:24.188Z,31.30
2019-01-20T08:27:53.529Z,22.17
2019-01-20T08:30:25.080Z,39.90
2019-01-20T08:32:54.359Z,24.90
2019-01-20T08:35:23.643Z,28.17
2019-01-20T08:37:52.886Z,30.48
2019-01-20T08:40:27.462Z,29.27
2019-01-20T08:42:56.717Z,24.57
2019-01-20T08:45:31.746Z,32.48
2019-01-20T08:48:05.628Z,27.32
2019-01-20T08:50:35.109Z,27.05
2019-01-20T08:53:04.369Z,24.75
2019-01-20T08:55:34.319Z,32.78
2019-01-20T08:58:03.676Z,22.27
2019-01-20T09:00:32.928Z,31.12
2019-01-20T09:03:02.103Z,25.97
2019-01-20T09:05:31.383Z,23.15
2019-01-20T09:08:00.707Z,24.57
2019-01-20T09:10:29.960Z,30.48
2019-01-20T09:13:03.823Z,23.52
2019-01-20T09:15:33.118Z,23.70
2019-01-20T09:18:02.442Z,19.27
2019-01-20T09:20:31.874Z,21.57
2019-01-20T09:23:01.210Z,21.87
2019-01-20T09:25:30.520Z,23.10
2019-01-20T09:27:59.736Z,22.80
2019-01-20T09:30:29.355Z,21.50
2019-01-20T09:32:58.521Z,18.70
2019-01-20T09:35:27.699Z,18.90
2019-01-20T09:37:56.857Z,20.85
2019-01-20T09:40:26.141Z,17.77
2019-01-20T09:42:55.399Z,19.00
2019-01-20T09:45:28.571Z,18.90
2019-01-20T09:47:58.248Z,18.20
2019-01-20T09:50:27.602Z,24.77
2019-01-20T09:52:56.878Z,30.12
2019-01-20T09:55:26.212Z,15.20
2019-01-20T09:57:55.553Z,15.75
2019-01-20T10:00:26.838Z,16.40
2019-01-20T10:02:56.078Z,23.05
2019-01-20T10:05:25.353Z,20.00
2019-01-20T10:07:54.673Z,18.90
2019-01-20T10:10:23.932Z,19.12
2019-01-20T10:12:53.224Z,24.87
2019-01-20T10:15:22.581Z,16.37
2019-01-20T10:17:51.829Z,16.70
2019-01-20T10:20:26.803Z,19.52
2019-01-20T10:22:56.047Z,17.02
2019-01-20T10:25:25.341Z,18.62
2019-01-20T10:27:54.691Z,17.27
2019-01-20T10:30:26.590Z,18.55
2019-01-20T10:32:55.847Z,18.73
2019-01-20T10:35:29.384Z,20.05
2019-01-20T10:38:00.278Z,18.92
2019-01-20T10:40:29.607Z,17.75
2019-01-20T10:42:58.951Z,22.45
2019-01-20T10:45:28.272Z,15.20
2019-01-20T10:47:57.591Z,18.85
2019-01-20T10:50:26.799Z,19.82
2019-01-20T10:52:55.990Z,20.52
2019-01-20T10:55:25.246Z,23.00
2019-01-20T10:57:54.518Z,17.98
2019-01-20T11:00:28.619Z,17.75
2019-01-20T11:02:57.993Z,19.15
2019-01-20T11:05:30.702Z,15.00
2019-01-20T11:07:58.342Z,19.73
2019-01-20T11:10:27.611Z,24.70
2019-01-20T11:12:56.962Z,18.60
2019-01-20T11:15:26.314Z,15.63
2019-01-20T11:17:55.758Z,15.90
2019-01-20T11:20:25.413Z,17.80
2019-01-20T11:22:54.767Z,26.20
2019-01-20T11:25:27.314Z,10.08
2019-01-20T11:27:56.573Z,17.60
2019-01-20T11:30:25.822Z,18.07
2019-01-20T11:32:55.243Z,17.00
2019-01-20T11:35:24.584Z,24.57
2019-01-20T11:37:53.947Z,17.82
2019-01-20T11:40:23.250Z,18.67
2019-01-20T11:42:52.557Z,21.05
2019-01-20T11:45:24.247Z,15.30
2019-01-20T11:47:53.535Z,17.85
2019-01-20T11:50:22.884Z,16.20
2019-01-20T11:52:52.155Z,22.37
2019-01-20T11:55:22.716Z,16.10
2019-01-20T11:57:52.569Z,16.50
2019-01-20T12:00:28.057Z,19.40
2019-01-20T12:02:57.569Z,20.65
2019-01-20T12:05:26.844Z,16.82
2019-01-20T12:07:56.214Z,15.78
2019-01-20T12:10:25.923Z,15.20
2019-01-20T12:13:06.554Z,18.05
2019-01-20T12:15:36.345Z,16.73
2019-01-20T12:18:06.237Z,14.60
2019-01-20T12:20:35.858Z,14.55
2019-01-20T12:23:05.859Z,13.35
2019-01-20T12:25:35.418Z,15.48
2019-01-20T12:28:04.768Z,14.95
2019-01-20T12:30:35.908Z,13.08
2019-01-20T12:33:05.896Z,16.30
2019-01-20T12:35:35.309Z,16.25
2019-01-20T12:38:04.648Z,11.70
2019-01-20T12:40:36.819Z,19.55
2019-01-20T12:43:06.810Z,13.68
2019-01-20T12:45:36.075Z,14.65
2019-01-20T12:48:05.988Z,16.97
2019-01-20T12:50:35.340Z,18.10
2019-01-20T12:53:04.790Z,16.32
2019-01-20T12:55:34.169Z,16.30
2019-01-20T12:58:04.984Z,14.55
2019-01-20T13:00:34.834Z,17.52
2019-01-20T13:03:04.428Z,18.50
2019-01-20T13:05:33.816Z,17.55
2019-01-20T13:08:03.085Z,18.07
2019-01-20T13:10:32.355Z,16.87
2019-01-20T13:13:01.635Z,17.00
2019-01-20T13:15:30.964Z,16.20
2019-01-20T13:18:00.333Z,18.50
2019-01-20T13:20:29.626Z,20.00
2019-01-20T13:22:59.242Z,16.30
2019-01-20T13:25:30.518Z,17.20
2019-01-20T13:27:59.881Z,15.93
2019-01-20T13:30:29.730Z,21.80
2019-01-20T13:32:58.998Z,18.07
2019-01-20T13:35:29.189Z,18.27
2019-01-20T13:38:10.719Z,22.32
2019-01-20T13:40:46.241Z,16.73
2019-01-20T13:43:15.473Z,19.90
2019-01-20T13:45:44.649Z,19.60
2019-01-20T13:48:14.018Z,14.55
2019-01-20T13:50:43.665Z,17.75
2019-01-20T13:53:12.938Z,17.67
2019-01-20T13:55:42.235Z,13.00
2019-01-20T13:58:11.589Z,14.03
2019-01-20T14:00:40.830Z,17.80
2019-01-20T14:03:10.226Z,16.70
2019-01-20T14:05:39.445Z,15.93
2019-01-20T14:08:08.688Z,17.30
2019-01-20T14:10:37.893Z,16.75
2019-01-20T14:13:07.353Z,14.83
2019-01-20T14:15:36.579Z,17.98
2019-01-20T14:18:05.763Z,13.38
2019-01-20T14:20:35.025Z,15.80
2019-01-20T14:23:04.600Z,16.37
2019-01-20T14:25:33.906Z,21.23
2019-01-20T14:28:03.182Z,18.15
2019-01-20T14:30:32.810Z,16.45
2019-01-20T14:33:02.139Z,20.92
2019-01-20T14:35:31.317Z,15.85
2019-01-20T14:38:00.610Z,18.25
2019-01-20T14:40:29.891Z,19.07
2019-01-20T14:42:59.239Z,15.90
2019-01-20T14:45:28.565Z,19.92
2019-01-20T14:47:57.852Z,21.85
2019-01-20T14:50:27.760Z,15.80
2019-01-20T14:52:57.338Z,19.52
2019-01-20T14:55:26.638Z,20.55
2019-01-20T14:57:55.977Z,16.30
2019-01-20T15:00:34.316Z,17.48
2019-01-20T15:03:04.185Z,16.85
2019-01-20T15:05:33.440Z,17.12
2019-01-20T15:08:03.356Z,18.10
2019-01-20T15:10:32.595Z,18.75
2019-01-20T15:13:01.780Z,22.77
2019-01-20T15:15:39.456Z,16.62
2019-01-20T15:18:09.222Z,22.05
2019-01-20T15:20:39.379Z,19.98
2019-01-20T15:23:09.260Z,17.65
2019-01-20T15:25:38.462Z,16.35
2019-01-20T15:28:08.601Z,16.87
2019-01-20T15:30:38.194Z,16.73
2019-01-20T15:33:07.512Z,16.67
2019-01-20T15:35:36.886Z,19.32
2019-01-20T15:38:06.183Z,25.60
2019-01-20T15:40:35.495Z,18.45
2019-01-20T15:43:05.290Z,30.97
2019-01-20T15:45:34.708Z,21.73
2019-01-20T15:48:04.501Z,28.50
2019-01-20T15:50:34.419Z,28.25
2019-01-20T15:53:03.693Z,20.77
2019-01-20T15:55:33.126Z,17.75
2019-01-20T15:58:02.476Z,21.20
2019-01-20T16:00:32.580Z,20.25
2019-01-20T16:03:02.134Z,20.37
2019-01-20T16:05:31.758Z,22.32
2019-01-20T16:08:01.050Z,23.30
2019-01-20T16:10:30.238Z,21.37
2019-01-20T16:12:59.586Z,24.10
2019-01-20T16:15:36.578Z,27.82
2019-01-20T16:18:06.958Z,23.67
2019-01-20T16:20:36.481Z,30.77
2019-01-20T16:23:08.068Z,28.23
2019-01-20T16:25:38.278Z,19.87
2019-01-20T16:28:09.281Z,21.55
2019-01-20T16:30:40.023Z,24.82
2019-01-20T16:33:09.214Z,20.70
2019-01-20T16:35:38.526Z,21.35
2019-01-20T16:38:09.449Z,28.32
2019-01-20T16:40:38.775Z,23.75
2019-01-20T16:43:09.534Z,25.90
2019-01-20T16:45:47.024Z,20.40
2019-01-20T16:48:16.254Z,22.70
2019-01-20T16:50:45.504Z,26.77
2019-01-20T16:53:14.796Z,25.88
2019-01-20T16:55:44.247Z,23.67
2019-01-20T16:58:13.549Z,22.15
2019-01-20T17:00:44.677Z,31.07
2019-01-20T17:03:14.289Z,27.73
2019-01-20T17:05:43.484Z,28.95
2019-01-20T17:08:13.005Z,23.77
2019-01-20T17:10:43.540Z,28.10
2019-01-20T17:13:13.518Z,25.65
2019-01-20T17:15:46.521Z,22.85
2019-01-20T17:18:17.163Z,34.18
2019-01-20T17:20:47.279Z,32.03
2019-01-20T17:23:16.831Z,31.80
2019-01-20T17:25:46.246Z,36.30
2019-01-20T17:28:15.637Z,26.57
2019-01-20T17:30:46.637Z,29.02
2019-01-20T17:33:16.359Z,28.55
2019-01-20T17:35:45.627Z,37.35
2019-01-20T17:38:15.004Z,34.18
2019-01-20T17:40:44.593Z,31.80
2019-01-20T17:43:13.860Z,32.70
2019-01-20T17:45:48.686Z,33.33
2019-01-20T17:48:15.828Z,36.75
2019-01-20T17:50:45.952Z,32.63
2019-01-20T17:53:15.614Z,38.50
2019-01-20T17:55:44.943Z,43.05
2019-01-20T17:58:14.221Z,29.55
2019-01-20T18:00:56.767Z,45.30
2019-01-20T18:03:26.488Z,29.95
2019-01-20T18:05:55.796Z,31.60
2019-01-20T18:08:25.093Z,33.02
2019-01-20T18:10:54.276Z,31.45
2019-01-20T18:13:24.462Z,37.25
2019-01-20T18:15:54.639Z,34.40
2019-01-20T18:18:24.588Z,37.50
2019-01-20T18:20:53.923Z,37.05
2019-01-20T18:23:23.308Z,39.40
2019-01-20T18:25:52.598Z,36.10
2019-01-20T18:28:21.883Z,45.78
2019-01-20T18:30:51.175Z,38.35
2019-01-20T18:33:20.450Z,37.00
2019-01-20T18:35:49.730Z,33.23
2019-01-20T18:38:19.135Z,35.08
2019-01-20T18:40:48.484Z,39.42
2019-01-20T18:43:17.851Z,40.83
2019-01-20T18:45:47.284Z,42.30
2019-01-20T18:48:16.601Z,39.03
2019-01-20T18:50:45.954Z,34.65
2019-01-20T18:53:15.305Z,35.48
2019-01-20T18:55:44.579Z,54.80
2019-01-20T18:58:13.779Z,36.25
2019-01-20T19:00:51.442Z,41.15
2019-01-20T19:03:21.296Z,42.88
2019-01-20T19:05:50.618Z,43.20
2019-01-20T19:08:19.846Z,36.95
2019-01-20T19:10:49.129Z,47.53
2019-01-20T19:13:18.481Z,38.80
2019-01-20T19:15:47.759Z,45.45
2019-01-20T19:18:19.155Z,38.45
2019-01-20T19:20:48.507Z,41.00
2019-01-20T19:23:17.865Z,42.40
2019-01-20T19:25:47.142Z,48.48
2019-01-20T19:28:16.512Z,50.48
2019-01-20T19:30:45.727Z,42.13
2019-01-20T19:33:14.914Z,41.13
2019-01-20T19:35:44.220Z,44.15
2019-01-20T19:38:13.695Z,52.30
2019-01-20T19:40:43.039Z,46.10
2019-01-20T19:43:12.594Z,43.87
2019-01-20T19:45:41.967Z,51.60
2019-01-20T19:48:15.865Z,50.78
2019-01-20T19:50:42.678Z,53.87
2019-01-20T19:53:11.962Z,51.65
2019-01-20T19:55:41.245Z,45.28
2019-01-20T19:58:10.491Z,60.05
2019-01-20T20:00:39.802Z,52.15
2019-01-20T20:03:09.001Z,60.08
2019-01-20T20:05:38.178Z,62.25
2019-01-20T20:08:07.500Z,59.23
2019-01-20T20:10:36.815Z,60.05
2019-01-20T20:13:06.162Z,53.95
2019-01-20T20:15:35.500Z,48.68
2019-01-20T20:18:05.859Z,46.98
2019-01-20T20:20:35.142Z,67.65
2019-01-20T20:23:04.732Z,55.75
2019-01-20T20:25:34.354Z,57.30
2019-01-20T20:28:03.686Z,44.80
2019-01-20T20:30:35.318Z,48.78
2019-01-20T20:33:04.988Z,39.20
2019-01-20T20:35:34.377Z,53.13
2019-01-20T20:38:03.770Z,54.15
2019-01-20T20:40:33.127Z,38.70
2019-01-20T20:43:02.464Z,48.00
2019-01-20T20:45:31.823Z,52.38
2019-01-20T20:48:01.107Z,54.33
2019-01-20T20:50:30.424Z,51.02
2019-01-20T20:52:59.954Z,51.58
2019-01-20T20:55:29.466Z,49.48
2019-01-20T20:57:58.823Z,46.98
2019-01-20T21:00:39.912Z,50.50
2019-01-20T21:03:12.843Z,46.85
2019-01-20T21:05:42.346Z,43.33
2019-01-20T21:08:11.852Z,43.42
2019-01-20T21:10:41.237Z,51.05
2019-01-20T21:13:10.619Z,48.10
2019-01-20T21:15:40.016Z,47.35
2019-01-20T21:18:09.468Z,52.15
2019-01-20T21:20:38.875Z,40.05
2019-01-20T21:23:12.276Z,41.15
2019-01-20T21:25:39.293Z,44.05
2019-01-20T21:28:08.967Z,42.23
2019-01-20T21:30:39.177Z,53.17
2019-01-20T21:33:08.727Z,43.68
2019-01-20T21:35:38.026Z,69.25
2019-01-20T21:38:07.382Z,46.55
2019-01-20T21:40:36.708Z,47.70
2019-01-20T21:43:05.975Z,46.40
2019-01-20T21:45:35.161Z,43.70
2019-01-20T21:48:04.481Z,50.90
2019-01-20T21:50:33.737Z,47.78
2019-01-20T21:53:02.965Z,40.45
2019-01-20T21:55:32.308Z,55.35
2019-01-20T21:58:01.475Z,44.30
2019-01-20T22:00:30.766Z,52.40
2019-01-20T22:03:00.106Z,40.00
2019-01-20T22:05:29.370Z,47.17
2019-01-20T22:07:58.649Z,41.42
2019-01-20T22:10:27.896Z,44.60
2019-01-20T22:12:57.164Z,42.85
2019-01-20T22:15:26.646Z,48.25
2019-01-20T22:17:55.957Z,38.42
2019-01-20T22:20:25.170Z,40.00
2019-01-20T22:22:54.858Z,43.42
2019-01-20T22:25:24.180Z,42.90
2019-01-20T22:27:53.375Z,44.05
2019-01-20T22:30:24.657Z,47.10
2019-01-20T22:32:54.228Z,37.10
2019-01-20T22:35:23.875Z,38.35
2019-01-20T22:37:53.130Z,39.60
2019-01-20T22:40:22.360Z,39.50
2019-01-20T22:42:51.625Z,49.03
2019-01-20T22:45:26.231Z,47.43
2019-01-20T22:47:55.403Z,44.83
2019-01-20T22:50:24.802Z,57.83
2019-01-20T22:52:54.048Z,41.60
2019-01-20T22:55:23.219Z,42.78
2019-01-20T22:57:52.465Z,47.05
2019-01-20T23:00:48.367Z,41.68
2019-01-20T23:03:17.824Z,44.67
2019-01-20T23:05:48.137Z,41.73
2019-01-20T23:12:24.364Z,42.23
2019-01-20T23:14:53.719Z,46.15
2019-01-20T23:17:22.898Z,56.10
2019-01-20T23:19:52.152Z,47.17
2019-01-20T23:22:21.484Z,40.43
2019-01-20T23:24:50.751Z,42.08
2019-01-20T23:27:19.968Z,41.83
2019-01-20T23:29:49.192Z,34.40
2019-01-20T23:32:18.423Z,45.25
2019-01-20T23:34:47.660Z,38.13
2019-01-20T23:37:16.939Z,36.58
2019-01-20T23:39:46.115Z,46.10
2019-01-20T23:42:15.438Z,58.48
2019-01-20T23:44:44.638Z,34.67
2019-01-20T23:47:15.344Z,34.90
2019-01-20T23:49:44.895Z,36.33
2019-01-20T23:52:14.092Z,45.88
2019-01-20T23:54:43.302Z,50.03
2019-01-20T23:57:12.544Z,43.33
2019-01-20T23:59:41.753Z,43.60
